Sawtelle Peak

Sawtelle summit stationLocated on Sawtelle Peak in the Centennials. Use the Sawtelle SNOdar or the nearest SNOTEL station for snow depth data: White Elephant. The data on this page is also available to view at dataGarrison.com.

 

Elevation
9885ft
Jump to table bottom
Date Time Temperature
deg F
RH, % Wind Speed Wind Gust Wind Direction Pressure Light
11/30/22 13:00 7.1 90 39 53 NW - 300 692.920 167,559
11/30/22 12:00 6.1 89 42 54 NW - 299 693.400 230,612
11/30/22 11:00 4.9 89 40 52 NW - 299 694.240 237,731
11/30/22 10:00 4.0 89 36 50 NW - 299 693.980 156,372
11/30/22 09:00 2.7 88 34 44 NW - 299 694.120 92,302
11/30/22 08:00 1.9 88 36 46 NW - 300 694.340 16,918
11/30/22 07:00 1.3 88 37 48 NW - 299 694.700 4
11/30/22 06:00 0.8 87 36 48 NW - 299 694.080 0
11/30/22 05:00 0.4 87 37 46 NW - 299 694.640 0
11/30/22 04:00 -0.1 87 37 46 NW - 300 694.380 0
11/30/22 03:00 -0.6 87 32 47 NW - 299 694.640 0
11/30/22 02:00 -0.8 87 32 45 NW - 299 695.060 0
11/30/22 01:00 -0.7 87 36 49 NW - 302 694.700 0
11/30/22 00:00 -1.0 87 32 50 NW - 296 695.220 0
11/29/22 23:00 -1.3 87 29 40 NW - 296 694.840 0
11/29/22 22:00 -1.3 87 24 37 NW - 303 695.000 0
11/29/22 21:00 -1.2 87 21 32 NW - 307 695.680 0
11/29/22 20:00 -1.4 87 24 31 NW - 309 695.360 0
11/29/22 19:00 -3.3 86 23 31 NW - 314 694.700 0
11/29/22 18:00 -4.6 86 21 30 NW - 321 694.740 0
11/29/22 17:00 -4.1 86 21 31 NW - 320 693.720 1,112
11/29/22 16:00 -2.6 86 19 29 NW - 320 693.720 64,335
11/29/22 15:00 -1.6 86 18 33 NW - 327 693.200 142,134
11/29/22 14:00 -0.5 86 15 29 NW - 334 693.140 355,701
11/29/22 13:00 1.8 87 14 27 NW - 336 692.620 335,361
11/29/22 12:00 2.2 87 11 23 N - 340 692.600 447,230
11/29/22 11:00 4.0 88 7 17 N - 345 692.700 274,342
11/29/22 10:00 2.0 87 3 12 N - 11 692.320 432,992
11/29/22 09:00 -2.1 86 8 17 N - 347 691.720 284,512
11/29/22 08:00 -5.2 86 6 16 N - 6 691.040 30,901
11/29/22 07:00 -4.5 86 6 15 N - 18 690.400 13
11/29/22 06:00 -4.5 86 6 23 N - 21 689.780 0
11/29/22 05:00 -2.3 86 7 24 N - 13 689.200 0
11/29/22 04:00 -1.8 87 10 20 N - 347 688.860 0
11/29/22 03:00 -3.0 86 9 17 NW - 334 688.760 0
11/29/22 02:00 -4.2 86 3 11 S - 167 688.300 0
11/29/22 01:00 -4.5 86 2 6 S - 168 688.120 0
11/29/22 00:00 -2.8 86 1 6 S - 168 688.020 0
11/28/22 23:00 -1.7 87 0 3 S - 168 687.680 0
11/28/22 22:00 -1.6 87 0 3 S - 168 687.740 0
11/28/22 21:00 -1.8 87 3 5 S - 168 687.900 0
11/28/22 20:00 -0.1 87 7 9 SE - 153 687.940 0
11/28/22 19:00 -0.3 87 7 9 SE - 124 687.920 0
11/28/22 18:00 -0.8 87 4 10 E - 110 687.900 0
11/28/22 17:00 -0.6 87 4 8 NE - 41 687.700 1,025
11/28/22 16:00 1.7 88 3 9 N - 1 687.300 53,402
11/28/22 15:00 5.3 89 4 12 N - 3 687.120 173,661
11/28/22 14:00 8.2 89 3 11 N - 1 687.040 238,748
11/28/22 13:00 8.9 90 6 13 N - 350 687.220 296,716
11/28/22 12:00 11.4 91 3 7 NW - 320 687.700 337,395